Maersk Roubaix — VREN3 — position and weather

sailwx.info

Track history (hours):
 
Tides and Currents Weather Stations Pressure Air Temp Water Temp Dewpoint Dewpoint Depression Visibility Wind Speed Wind Dir Waves Ship Positions

Maersk Roubaix

Last reported at 2018-May-19 18:48 UTC. Time now 2018-May-22 19:53 UTC.
Position N 35°57' W 006°10'.

Length 147 m; draft 8.4 m.

Type: Ship. MMSI: 477143100.

Date/timePositionNaut miles runAvg speedWind from/ knotsBaromVisibWave heightAir tempDewpointWater temp
2018-May-19 18:48N 35°57' W 006°10'311.0
2018-May-19 18:30N 35°57' W 006°06'510.9
2018-May-19 18:00N 35°57' W 005°60'611.1
2018-May-19 17:28N 35°57' W 005°52'511.0
2018-May-19 17:00N 35°57' W 005°46'611.3
2018-May-19 16:30N 35°57' W 005°39'611.8
2018-May-19 16:00N 35°59' W 005°32'511.2
2018-May-19 15:30N 36°01' W 005°26'611.3
2018-May-19 15:00N 36°06' W 005°23'3 5.0
2018-May-19 14:27N 36°08' W 005°26'0 0.4
2018-May-19 14:01N 36°08' W 005°26'0 0.0
2018-May-19 13:22N 36°08' W 005°26'0 0.0
2018-May-19 12:49N 36°08' W 005°26'0 0.0
2018-May-19 11:28N 36°08' W 005°26'0 0.0
2018-May-19 10:58N 36°08' W 005°26'0 0.0
2018-May-19 10:28N 36°08' W 005°26'0 0.0
2018-May-19 09:49N 36°08' W 005°26'0 0.0
2018-May-19 09:25N 36°08' W 005°26'0 0.0
2018-May-19 09:01N 36°08' W 005°26'0 0.0
2018-May-19 07:25N 36°08' W 005°26'0 0.0
2018-May-19 06:55N 36°08' W 005°26'0 0.0
2018-May-19 06:28N 36°08' W 005°26'0 0.0
2018-May-19 05:58N 36°08' W 005°26'0 0.0
2018-May-19 05:28N 36°08' W 005°26'0 0.0
2018-May-19 04:58N 36°08' W 005°26'0 0.0
2018-May-19 04:28N 36°08' W 005°26'0 0.0
2018-May-19 03:58N 36°08' W 005°26'0 0.0
2018-May-19 03:25N 36°08' W 005°26'0 0.0
2018-May-19 03:01N 36°08' W 005°26'0 0.0
2018-May-19 02:31N 36°08' W 005°26'0 0.0
2018-May-19 02:01N 36°08' W 005°26'0 0.0
2018-May-19 01:28N 36°08' W 005°26'0 0.0
2018-May-19 01:01N 36°08' W 005°26'0 0.0
2018-May-19 00:31N 36°08' W 005°26'0 0.0
2018-May-18 23:58N 36°08' W 005°26'0 0.0
2018-May-18 23:28N 36°08' W 005°26'0 0.0
2018-May-18 22:55N 36°08' W 005°26'0 0.0
2018-May-18 22:28N 36°08' W 005°26'0 0.0
2018-May-18 22:01N 36°08' W 005°26'2 2.6
2018-May-18 21:21N 36°10' W 005°26'0 0.1
2018-May-18 20:57N 36°10' W 005°26'0 0.0
2018-May-18 20:30N 36°10' W 005°26'0 0.0
2018-May-18 19:57N 36°10' W 005°26'0 0.0
2018-May-18 19:30N 36°10' W 005°26'0 0.1
2018-May-18 19:00N 36°10' W 005°26'0 0.0
2018-May-18 18:27N 36°10' W 005°26'0 0.0
2018-May-18 18:00N 36°10' W 005°26'0 0.0
2018-May-18 17:30N 36°10' W 005°26'0 0.0
2018-May-18 16:57N 36°10' W 005°26'0 0.0
2018-May-18 16:09N 36°10' W 005°26'0 0.0
2018-May-18 15:45N 36°10' W 005°26'0 0.0
2018-May-18 15:30N 36°10' W 005°26'0 0.0
2018-May-18 15:00N 36°10' W 005°26'0 0.0
2018-May-18 14:12N 36°10' W 005°26'0 0.0
2018-May-18 13:39N 36°10' W 005°26'0 0.0
2018-May-18 13:27N 36°10' W 005°26'0 0.1
2018-May-18 12:45N 36°10' W 005°26'0 0.5
2018-May-18 12:30N 36°10' W 005°26'0 0.9
2018-May-18 12:00N 36°10' W 005°26'3 5.7
2018-May-18 11:30N 36°07' W 005°23'4 7.2
2018-May-18 11:00N 36°04' W 005°22'4 7.6
2018-May-18 10:30N 36°03' W 005°18'0 0.6
2018-May-18 10:00N 36°03' W 005°18'1 2.9
2018-May-18 09:30N 36°03' W 005°20'1 2.6
2018-May-18 09:00N 36°03' W 005°21'1 2.7
2018-May-18 08:30N 36°04' W 005°23'1 1.4
2018-May-18 08:00N 36°03' W 005°22'0 0.2
2018-May-18 07:30N 36°03' W 005°22'0 0.2
2018-May-18 07:00N 36°03' W 005°22'0 0.2
2018-May-18 06:30N 36°03' W 005°22'0 0.5
2018-May-18 06:00N 36°03' W 005°22'2 3.4
2018-May-18 05:30N 36°01' W 005°22'4 8.7
2018-May-18 05:00N 35°58' W 005°26'5 0.3
2018-May-17 08:25N 35°53' W 005°30'0 0.7
2018-May-17 08:00N 35°54' W 005°30'3 5.3
2018-May-17 07:30N 35°55' W 005°33'1 1.7
2018-May-17 07:00N 35°54' W 005°33'1 1.6
2018-May-17 06:30N 35°55' W 005°33'2 3.0
2018-May-17 05:59N 35°55' W 005°35'5 5.1
2018-May-17 04:56N 35°54' W 005°42'  
2018-May-14 22:09N 28°57' W 012°54'210.6
2018-May-14 22:00N 28°56' W 012°55'2910.4
2018-May-14 19:11N 28°31' W 013°13'510.2
2018-May-14 18:43N 28°27' W 013°17'310.2
2018-May-14 18:27N 28°25' W 013°18'1210.2
2018-May-14 17:19N 28°15' W 013°26'410.3
2018-May-14 16:53N 28°12' W 013°28'510.2
2018-May-14 16:23N 28°07' W 013°32'1910.3
2018-May-14 14:30N 27°51' W 013°44'610.8
2018-May-14 13:59N 27°47' W 013°47'710.8
2018-May-14 13:18N 27°40' W 013°52'410.6
2018-May-14 12:56N 27°37' W 013°54'510.7
2018-May-14 12:27N 27°33' W 013°57'  
Track history (hours):
 
Tides and Currents Weather Stations Pressure Air Temp Water Temp Dewpoint Dewpoint Depression Visibility Wind Speed Wind Dir Waves Ship Positions

Maersk Roubaix

Last reported at 2018-May-19 18:48 UTC. Time now 2018-May-22 19:53 UTC.
Position N 35°57' W 006°10'.

Length 147 m; draft 8.4 m.

Type: Ship. MMSI: 477143100.

Date/timePositionNaut miles runAvg speedWind from/ knotsBaromVisibWave heightAir tempDewpointWater temp
2018-May-19 18:48N 35°57' W 006°10'311.0
2018-May-19 18:30N 35°57' W 006°06'510.9
2018-May-19 18:00N 35°57' W 005°60'611.1
2018-May-19 17:28N 35°57' W 005°52'511.0
2018-May-19 17:00N 35°57' W 005°46'611.3
2018-May-19 16:30N 35°57' W 005°39'611.8
2018-May-19 16:00N 35°59' W 005°32'511.2
2018-May-19 15:30N 36°01' W 005°26'611.3
2018-May-19 15:00N 36°06' W 005°23'3 5.0
2018-May-19 14:27N 36°08' W 005°26'0 0.4
2018-May-19 14:01N 36°08' W 005°26'0 0.0
2018-May-19 13:22N 36°08' W 005°26'0 0.0
2018-May-19 12:49N 36°08' W 005°26'0 0.0
2018-May-19 11:28N 36°08' W 005°26'0 0.0
2018-May-19 10:58N 36°08' W 005°26'0 0.0
2018-May-19 10:28N 36°08' W 005°26'0 0.0
2018-May-19 09:49N 36°08' W 005°26'0 0.0
2018-May-19 09:25N 36°08' W 005°26'0 0.0
2018-May-19 09:01N 36°08' W 005°26'0 0.0
2018-May-19 07:25N 36°08' W 005°26'0 0.0
2018-May-19 06:55N 36°08' W 005°26'0 0.0
2018-May-19 06:28N 36°08' W 005°26'0 0.0
2018-May-19 05:58N 36°08' W 005°26'0 0.0
2018-May-19 05:28N 36°08' W 005°26'0 0.0
2018-May-19 04:58N 36°08' W 005°26'0 0.0
2018-May-19 04:28N 36°08' W 005°26'0 0.0
2018-May-19 03:58N 36°08' W 005°26'0 0.0
2018-May-19 03:25N 36°08' W 005°26'0 0.0
2018-May-19 03:01N 36°08' W 005°26'0 0.0
2018-May-19 02:31N 36°08' W 005°26'0 0.0
2018-May-19 02:01N 36°08' W 005°26'0 0.0
2018-May-19 01:28N 36°08' W 005°26'0 0.0
2018-May-19 01:01N 36°08' W 005°26'0 0.0
2018-May-19 00:31N 36°08' W 005°26'0 0.0
2018-May-18 23:58N 36°08' W 005°26'0 0.0
2018-May-18 23:28N 36°08' W 005°26'0 0.0
2018-May-18 22:55N 36°08' W 005°26'0 0.0
2018-May-18 22:28N 36°08' W 005°26'0 0.0
2018-May-18 22:01N 36°08' W 005°26'2 2.6
2018-May-18 21:21N 36°10' W 005°26'0 0.1
2018-May-18 20:57N 36°10' W 005°26'0 0.0
2018-May-18 20:30N 36°10' W 005°26'0 0.0
2018-May-18 19:57N 36°10' W 005°26'0 0.0
2018-May-18 19:30N 36°10' W 005°26'0 0.1
2018-May-18 19:00N 36°10' W 005°26'0 0.0
2018-May-18 18:27N 36°10' W 005°26'0 0.0
2018-May-18 18:00N 36°10' W 005°26'0 0.0
2018-May-18 17:30N 36°10' W 005°26'0 0.0
2018-May-18 16:57N 36°10' W 005°26'0 0.0
2018-May-18 16:09N 36°10' W 005°26'0 0.0
2018-May-18 15:45N 36°10' W 005°26'0 0.0
2018-May-18 15:30N 36°10' W 005°26'0 0.0
2018-May-18 15:00N 36°10' W 005°26'0 0.0
2018-May-18 14:12N 36°10' W 005°26'0 0.0
2018-May-18 13:39N 36°10' W 005°26'0 0.0
2018-May-18 13:27N 36°10' W 005°26'0 0.1
2018-May-18 12:45N 36°10' W 005°26'0 0.5
2018-May-18 12:30N 36°10' W 005°26'0 0.9
2018-May-18 12:00N 36°10' W 005°26'3 5.7
2018-May-18 11:30N 36°07' W 005°23'4 7.2
2018-May-18 11:00N 36°04' W 005°22'4 7.6
2018-May-18 10:30N 36°03' W 005°18'0 0.6
2018-May-18 10:00N 36°03' W 005°18'1 2.9
2018-May-18 09:30N 36°03' W 005°20'1 2.6
2018-May-18 09:00N 36°03' W 005°21'1 2.7
2018-May-18 08:30N 36°04' W 005°23'1 1.4
2018-May-18 08:00N 36°03' W 005°22'0 0.2
2018-May-18 07:30N 36°03' W 005°22'0 0.2
2018-May-18 07:00N 36°03' W 005°22'0 0.2
2018-May-18 06:30N 36°03' W 005°22'0 0.5
2018-May-18 06:00N 36°03' W 005°22'2 3.4
2018-May-18 05:30N 36°01' W 005°22'4 8.7
2018-May-18 05:00N 35°58' W 005°26'5 0.3
2018-May-17 08:25N 35°53' W 005°30'0 0.7
2018-May-17 08:00N 35°54' W 005°30'3 5.3
2018-May-17 07:30N 35°55' W 005°33'1 1.7
2018-May-17 07:00N 35°54' W 005°33'1 1.6
2018-May-17 06:30N 35°55' W 005°33'2 3.0
2018-May-17 05:59N 35°55' W 005°35'5 5.1
2018-May-17 04:56N 35°54' W 005°42'  
2018-May-14 22:09N 28°57' W 012°54'210.6
2018-May-14 22:00N 28°56' W 012°55'2910.4
2018-May-14 19:11N 28°31' W 013°13'510.2
2018-May-14 18:43N 28°27' W 013°17'310.2
2018-May-14 18:27N 28°25' W 013°18'1210.2
2018-May-14 17:19N 28°15' W 013°26'410.3
2018-May-14 16:53N 28°12' W 013°28'510.2
2018-May-14 16:23N 28°07' W 013°32'1910.3
2018-May-14 14:30N 27°51' W 013°44'610.8
2018-May-14 13:59N 27°47' W 013°47'710.8
2018-May-14 13:18N 27°40' W 013°52'410.6
2018-May-14 12:56N 27°37' W 013°54'510.7
2018-May-14 12:27N 27°33' W 013°57'  

Dump ship's entire track history